Caleb J. Eymard — WDC8180 — position and weather

sailwx.info

Track history (hours):
 
Tides and Currents Weather Stations Pressure Air Temp Water Temp Dewpoint Dewpoint Depression Visibility Wind Speed Wind Dir Waves Ship Positions

Caleb J. Eymard

Owner: Eymard Brothers Towing Company, Inc., Marrero, LA. More information available from US FCC via Universal Licensing System and Coast Guard Vessel Documentation Center.

Last reported at 2017-Nov-17 18:51 UTC. Time now 2017-Nov-18 06:52 UTC.
Position N 29°42' W 094°55'.

Length 20 m; draft 3 m.

Type: Towing. MMSI: 367082880.

Date/timePositionNaut miles runAvg speedWind from/ knotsBaromVisibWave heightAir tempDewpointWater temp
2017-Nov-17 18:51N 29°42' W 094°55'0 0.1
2017-Nov-17 15:36N 29°42' W 094°55'0 0.0
2017-Nov-17 01:02N 29°42' W 094°55'0 1.3
2017-Nov-17 00:49N 29°42' W 094°55'1 1.7
2017-Nov-17 00:29N 29°42' W 094°56'1 1.6
2017-Nov-17 00:00N 29°43' W 094°56'0 0.0
2017-Nov-16 23:26N 29°43' W 094°56'0 0.0
2017-Nov-16 23:00N 29°43' W 094°56'0 0.1
2017-Nov-16 22:27N 29°43' W 094°56'0 0.0
2017-Nov-16 21:58N 29°43' W 094°56'0 0.0
2017-Nov-16 21:30N 29°43' W 094°56'0 0.0
2017-Nov-16 20:53N 29°43' W 094°56'1 0.6
2017-Nov-16 19:50N 29°43' W 094°57'1 1.9
2017-Nov-16 19:29N 29°43' W 094°56'1 1.5
2017-Nov-16 18:52N 29°42' W 094°55'1 2.5
2017-Nov-16 18:29N 29°41' W 094°55'2 3.3
2017-Nov-16 17:59N 29°41' W 094°57'1 2.8
2017-Nov-16 17:30N 29°40' W 094°59'3 5.9
2017-Nov-16 17:00N 29°38' W 094°58'2 4.8
2017-Nov-16 16:30N 29°37' W 095°00'0 0.5
2017-Nov-16 16:00N 29°37' W 095°00'0 0.0
2017-Nov-16 15:30N 29°37' W 095°00'0 0.0
2017-Nov-16 15:00N 29°37' W 095°00'0 0.0
2017-Nov-16 14:30N 29°37' W 095°00'0 0.0
2017-Nov-16 14:00N 29°37' W 095°00'0 0.0
2017-Nov-16 13:30N 29°37' W 095°00'0 0.1
2017-Nov-16 13:00N 29°37' W 095°01'0 0.0
2017-Nov-16 12:30N 29°37' W 095°00'0 0.0
2017-Nov-16 12:00N 29°37' W 095°01'0 0.0
2017-Nov-16 11:30N 29°37' W 095°01'0 0.0
2017-Nov-16 11:00N 29°37' W 095°01'0 0.0
2017-Nov-16 10:30N 29°37' W 095°00'0 0.0
2017-Nov-16 10:00N 29°37' W 095°00'0 0.0
2017-Nov-16 09:30N 29°37' W 095°00'0 0.0
2017-Nov-16 09:00N 29°37' W 095°00'0 0.0
2017-Nov-16 08:30N 29°37' W 095°00'0 0.0
2017-Nov-16 08:00N 29°37' W 095°01'0 0.0
2017-Nov-16 07:30N 29°37' W 095°00'0 0.0
2017-Nov-16 07:00N 29°37' W 095°01'0 0.0
2017-Nov-16 06:30N 29°37' W 095°00'0 0.0
2017-Nov-16 06:00N 29°37' W 095°01'0 0.0
2017-Nov-16 05:30N 29°37' W 095°00'0 0.0
2017-Nov-16 05:00N 29°37' W 095°01'2 3.6
2017-Nov-16 04:30N 29°37' W 094°58'2 4.8
2017-Nov-16 04:00N 29°39' W 094°58'2 4.3
2017-Nov-16 03:30N 29°41' W 094°58'2 4.0
2017-Nov-16 02:58N 29°41' W 094°56'1 1.2
2017-Nov-16 02:09N 29°42' W 094°55'0 0.0
2017-Nov-16 01:50N 29°42' W 094°55'1 1.8
2017-Nov-16 01:30N 29°41' W 094°55'2 2.8
2017-Nov-16 00:54N 29°41' W 094°57'1 3.8
2017-Nov-16 00:30N 29°41' W 094°59'3 5.1
2017-Nov-15 23:59N 29°43' W 095°01'5 5.0
2017-Nov-15 23:04N 29°46' W 095°05'0 6.1
2017-Nov-15 23:00N 29°45' W 095°06'3 5.4
2017-Nov-15 22:29N 29°44' W 095°09'3 5.5
2017-Nov-15 21:58N 29°45' W 095°12'3 5.3
2017-Nov-15 21:24N 29°43' W 095°15'2 4.4
2017-Nov-15 21:00N 29°44' W 095°17'0 0.0
2017-Nov-15 11:19N 29°44' W 095°17'0 0.0
2017-Nov-15 11:00N 29°44' W 095°17'0 0.0
2017-Nov-15 06:14N 29°44' W 095°17'0 0.2
2017-Nov-15 06:00N 29°44' W 095°17'2 4.4
2017-Nov-15 05:29N 29°43' W 095°14'3 5.8
2017-Nov-15 04:59N 29°45' W 095°11'3 6.0
2017-Nov-15 04:30N 29°44' W 095°08'3 5.9
2017-Nov-15 03:59N 29°46' W 095°05'3 5.9
2017-Nov-15 03:30N 29°44' W 095°03'3 5.3
2017-Nov-15 03:00N 29°42' W 095°01'3 5.1
2017-Nov-15 02:30N 29°41' W 094°58'2 4.0
2017-Nov-15 02:00N 29°41' W 094°55'1 1.5
2017-Nov-15 01:21N 29°42' W 094°55'0 0.5
2017-Nov-15 00:55N 29°42' W 094°55'2 3.8
2017-Nov-15 00:30N 29°40' W 094°56'2 4.3
2017-Nov-15 00:00N 29°41' W 094°58'2 4.6
2017-Nov-14 23:30N 29°39' W 094°58'2 4.3
2017-Nov-14 23:00N 29°37' W 094°58'1 2.7
2017-Nov-14 22:30N 29°37' W 095°00'0 0.1
2017-Nov-14 22:00N 29°37' W 095°00'0 0.0
2017-Nov-14 21:30N 29°37' W 095°00'0 0.0
2017-Nov-14 21:00N 29°37' W 095°00'0 0.0
2017-Nov-14 20:30N 29°37' W 095°00'0 0.0
2017-Nov-14 20:00N 29°37' W 095°00'0 0.0
2017-Nov-14 19:30N 29°37' W 095°00'0 0.0
2017-Nov-14 19:00N 29°37' W 095°00'0 0.0
2017-Nov-14 18:30N 29°37' W 095°00'0 0.0
2017-Nov-14 18:00N 29°37' W 095°00'0 0.0
2017-Nov-14 17:30N 29°37' W 095°00'0 0.0
2017-Nov-14 17:00N 29°37' W 095°00'0 0.0
2017-Nov-14 16:30N 29°37' W 095°00'0 0.1
2017-Nov-14 16:00N 29°37' W 095°00'0 0.0
2017-Nov-14 15:30N 29°37' W 095°00'0 0.0
2017-Nov-14 15:00N 29°37' W 095°00'0 0.0
2017-Nov-14 14:30N 29°37' W 095°00'0 0.0
2017-Nov-14 14:00N 29°37' W 095°00'0 0.0
2017-Nov-14 13:30N 29°37' W 095°00'0 0.0
2017-Nov-14 13:00N 29°37' W 095°00'0 0.0
2017-Nov-14 12:30N 29°37' W 095°00'0 0.0
2017-Nov-14 12:00N 29°37' W 095°00'0 0.0
2017-Nov-14 11:30N 29°37' W 095°00'0 0.0
2017-Nov-14 11:00N 29°37' W 095°00'0 0.0
2017-Nov-14 10:30N 29°37' W 095°00'0 0.0
2017-Nov-14 10:00N 29°37' W 095°00'0 0.0
2017-Nov-14 09:30N 29°37' W 095°00'0 0.0
2017-Nov-14 09:00N 29°37' W 095°00'0 0.0
2017-Nov-14 08:30N 29°37' W 095°00'0 0.0
2017-Nov-14 08:00N 29°37' W 095°00'0 0.0
2017-Nov-14 07:30N 29°37' W 095°00'0 0.0
2017-Nov-14 07:00N 29°37' W 095°00'0 0.6
2017-Nov-14 06:30N 29°37' W 094°60'2 4.1
2017-Nov-14 05:59N 29°38' W 094°58'3 6.1
2017-Nov-14 05:30N 29°41' W 094°59'2 4.2
2017-Nov-14 04:59N 29°41' W 094°56'2 0.6
2017-Nov-14 02:15N 29°42' W 094°55'0 0.3
2017-Nov-14 01:58N 29°42' W 094°55'1 3.1
2017-Nov-14 01:30N 29°40' W 094°56'2 3.9
2017-Nov-14 01:00N 29°41' W 094°58'2 4.3
2017-Nov-14 00:30N 29°42' W 095°00'3 5.3
2017-Nov-13 23:58N 29°44' W 095°03'3 4.8
2017-Nov-13 23:21N 29°45' W 095°06'2 5.9
2017-Nov-13 22:57N 29°44' W 095°08'3 5.8
2017-Nov-13 22:24N 29°45' W 095°12'2 5.4
2017-Nov-13 21:59N 29°43' W 095°14'11 0.5
2017-Nov-13 02:00N 29°43' W 095°01'3 5.6
2017-Nov-13 01:30N 29°41' W 094°59'2 4.7
2017-Nov-13 01:01N 29°41' W 094°56'2 3.3
2017-Nov-13 00:29N 29°42' W 094°55'1 1.4
2017-Nov-13 00:00N 29°41' W 094°55'1 2.7
2017-Nov-12 23:30N 29°41' W 094°57'2 3.6
2017-Nov-12 23:01N 29°41' W 094°59'3 5.3
2017-Nov-12 22:31N 29°43' W 095°01'3 5.1
2017-Nov-12 22:00N 29°44' W 095°03'3 4.0
2017-Nov-12 21:19N 29°44' W 095°07'2 5.9
2017-Nov-12 21:00N 29°44' W 095°09'3 5.5
2017-Nov-12 20:30N 29°44' W 095°12'3 5.3
2017-Nov-12 20:00N 29°43' W 095°15'2 4.2
2017-Nov-12 19:30N 29°44' W 095°17'0 0.1
2017-Nov-12 19:01N 29°44' W 095°17'0 0.0
2017-Nov-12 16:55N 29°44' W 095°17'0 0.0
2017-Nov-12 09:37N 29°44' W 095°17'0 0.0
2017-Nov-12 02:42N 29°44' W 095°17'0 0.4
2017-Nov-12 02:30N 29°44' W 095°17'0 0.2
2017-Nov-12 01:48N 29°44' W 095°17'0 0.0
2017-Nov-12 01:15N 29°44' W 095°17'0 0.0
2017-Nov-12 00:54N 29°44' W 095°17'0 0.0
2017-Nov-12 00:30N 29°44' W 095°17'2 4.4
2017-Nov-12 00:00N 29°43' W 095°14'3 5.9
2017-Nov-11 23:28N 29°45' W 095°11'4 6.0
2017-Nov-11 22:47N 29°45' W 095°06'2 5.9
2017-Nov-11 22:27N 29°46' W 095°05'3 6.0
2017-Nov-11 21:55N 29°44' W 095°02'2 5.6
2017-Nov-11 21:30N 29°42' W 095°00'3 5.1
2017-Nov-11 20:59N 29°41' W 094°57'2 3.3
2017-Nov-11 20:28N 29°41' W 094°55'1 0.3
2017-Nov-11 18:21N 29°42' W 094°55'0 0.2
2017-Nov-11 17:56N 29°42' W 094°55'1 1.9
2017-Nov-11 17:28N 29°41' W 094°55'2 4.1
2017-Nov-11 17:00N 29°41' W 094°58'2 3.7
2017-Nov-11 16:31N 29°39' W 094°58'3 5.2
2017-Nov-11 16:01N 29°37' W 094°58'2 3.5
2017-Nov-11 15:31N 29°37' W 095°00'0 0.0
2017-Nov-11 15:01N 29°37' W 095°00'0 0.0
2017-Nov-11 14:31N 29°37' W 095°00'0 0.0
2017-Nov-11 14:01N 29°37' W 095°00'0 0.0
2017-Nov-11 13:31N 29°37' W 095°00'0 0.0
2017-Nov-11 13:00N 29°37' W 095°00'0 0.0
2017-Nov-11 12:30N 29°37' W 095°00'0 0.0
2017-Nov-11 12:00N 29°37' W 095°00'0 0.0
2017-Nov-11 11:30N 29°37' W 095°00'0 0.0
2017-Nov-11 11:00N 29°37' W 095°00'0 0.0
2017-Nov-11 10:30N 29°37' W 095°00'0 0.0
2017-Nov-11 10:00N 29°37' W 095°00'0 0.0
2017-Nov-11 09:30N 29°37' W 095°00'0 0.0
2017-Nov-11 09:00N 29°37' W 095°00'0 0.0
2017-Nov-11 08:30N 29°37' W 095°00'0 0.0
2017-Nov-11 08:00N 29°37' W 095°00'0 0.0
2017-Nov-11 07:30N 29°37' W 095°00'0 0.0
2017-Nov-11 07:00N 29°37' W 095°00'0 0.0
2017-Nov-11 06:30N 29°37' W 095°00'0 0.0
2017-Nov-11 06:00N 29°37' W 095°00'0 0.0
2017-Nov-11 05:30N 29°37' W 095°00'0 0.0
2017-Nov-11 05:00N 29°37' W 095°00'0 0.0
2017-Nov-11 04:30N 29°37' W 095°00'0 0.0
2017-Nov-11 04:00N 29°37' W 095°00'0 0.0
2017-Nov-11 03:30N 29°37' W 095°00'0 0.0
2017-Nov-11 03:00N 29°37' W 095°00'0 0.0
2017-Nov-11 02:30N 29°37' W 095°00'0 0.0
2017-Nov-11 02:00N 29°37' W 095°00'0 0.2
2017-Nov-11 01:30N 29°37' W 095°00'2 4.9
2017-Nov-11 01:00N 29°37' W 094°58'4 7.5
2017-Nov-11 00:30N 29°41' W 094°59'3 5.1
2017-Nov-11 00:00N 29°40' W 094°56'2 0.7
2017-Nov-10 21:24N 29°42' W 094°55'2 4.4
2017-Nov-10 21:00N 29°40' W 094°56'3 5.7
2017-Nov-10 20:30N 29°41' W 094°59'4 7.1
2017-Nov-10 19:58N 29°44' W 095°02'4 2.1
2017-Nov-10 18:07N 29°45' W 095°07'0 0.0
2017-Nov-10 17:58N 29°45' W 095°07'0 0.0
2017-Nov-10 15:10N 29°45' W 095°07'0 0.0
2017-Nov-10 14:43N 29°45' W 095°07'0 0.0
2017-Nov-10 14:21N 29°45' W 095°07'0 0.0
2017-Nov-10 01:18N 29°45' W 095°07'0 1.6
2017-Nov-10 01:00N 29°44' W 095°07'3 6.4
2017-Nov-10 00:28N 29°45' W 095°11'2 5.0
2017-Nov-10 00:00N 29°44' W 095°13'1 2.2
2017-Nov-09 23:31N 29°44' W 095°12'1 1.4
2017-Nov-09 23:00N 29°45' W 095°11'0 0.0
2017-Nov-09 22:29N 29°45' W 095°11'0 0.0
2017-Nov-09 22:00N 29°45' W 095°11'0 0.0
2017-Nov-09 21:25N 29°45' W 095°11'0 0.0
2017-Nov-09 20:58N 29°45' W 095°11'0 0.0
2017-Nov-09 20:29N 29°45' W 095°11'0 0.0
2017-Nov-09 19:55N 29°45' W 095°11'0 0.0
2017-Nov-09 18:49N 29°45' W 095°11'0 0.0
2017-Nov-09 18:24N 29°45' W 095°11'0 0.0
2017-Nov-09 16:48N 29°45' W 095°11'0 0.0
2017-Nov-09 14:56N 29°45' W 095°11'0 0.0
2017-Nov-09 13:55N 29°45' W 095°11'0 0.0
2017-Nov-09 13:20N 29°45' W 095°11'0 0.0
2017-Nov-09 13:00N 29°45' W 095°11'0 0.0
2017-Nov-09 12:30N 29°45' W 095°11'0 0.0
2017-Nov-09 12:00N 29°45' W 095°11'0 0.0
2017-Nov-09 11:30N 29°45' W 095°11'0 0.0
2017-Nov-09 11:00N 29°45' W 095°11'0 0.0
2017-Nov-09 10:30N 29°45' W 095°11'0 0.0
2017-Nov-09 09:59N 29°45' W 095°11'0 0.0
2017-Nov-09 09:30N 29°45' W 095°11'0 0.0
2017-Nov-09 09:00N 29°45' W 095°11'0 0.0
2017-Nov-09 08:30N 29°45' W 095°11'0 0.0
2017-Nov-09 08:00N 29°45' W 095°11'0 0.0
2017-Nov-09 07:29N 29°45' W 095°11'0 0.0
2017-Nov-09 07:00N 29°45' W 095°11'0 0.0
2017-Nov-09 06:30N 29°45' W 095°11'0 0.0
2017-Nov-09 06:00N 29°45' W 095°11'0 0.0
2017-Nov-09 05:30N 29°45' W 095°11'0 0.0
2017-Nov-09 05:00N 29°45' W 095°11'0 0.0
2017-Nov-09 04:30N 29°45' W 095°11'0 0.0
2017-Nov-09 04:00N 29°45' W 095°11'0 0.0
2017-Nov-09 03:27N 29°45' W 095°11'0 0.0
2017-Nov-09 03:00N 29°45' W 095°11'0 0.0
2017-Nov-09 02:30N 29°45' W 095°11'0 0.0
2017-Nov-09 01:58N 29°45' W 095°11'0 0.0
2017-Nov-09 01:27N 29°45' W 095°11'0 0.0
2017-Nov-09 01:00N 29°45' W 095°11'0 0.0
2017-Nov-09 00:30N 29°45' W 095°11'0 0.0
2017-Nov-09 00:00N 29°45' W 095°11'0 0.0
2017-Nov-08 23:30N 29°45' W 095°11'0 0.0
2017-Nov-08 23:00N 29°45' W 095°11'0 0.0
2017-Nov-08 22:30N 29°45' W 095°11'0 0.1
2017-Nov-08 21:51N 29°45' W 095°11'0 0.0
2017-Nov-08 21:16N 29°45' W 095°11'1 1.9
2017-Nov-08 20:54N 29°45' W 095°11'2 5.8
2017-Nov-08 20:30N 29°44' W 095°08'3 5.8
2017-Nov-08 20:00N 29°46' W 095°05'3 5.3
2017-Nov-08 19:30N 29°44' W 095°03'2 4.9
2017-Nov-08 19:00N 29°42' W 095°01'2 5.0
2017-Nov-08 18:30N 29°41' W 094°59'3 5.8
2017-Nov-08 18:00N 29°38' W 094°58'2 4.4
2017-Nov-08 17:30N 29°37' W 094°60'0 0.8
2017-Nov-08 17:00N 29°37' W 095°00'0 0.0
2017-Nov-08 16:30N 29°37' W 095°00'0 0.0
2017-Nov-08 16:00N 29°37' W 095°00'0 0.0
2017-Nov-08 15:30N 29°37' W 095°00'0 0.0
2017-Nov-08 15:00N 29°37' W 095°00'0 0.0
2017-Nov-08 14:30N 29°37' W 095°00'0 0.0
2017-Nov-08 14:00N 29°37' W 095°00'0 0.0
2017-Nov-08 13:30N 29°37' W 095°00'0 0.1
2017-Nov-08 13:00N 29°37' W 095°00'0 0.0
2017-Nov-08 12:31N 29°37' W 095°00'0 0.0
2017-Nov-08 12:01N 29°37' W 095°00'0 0.0
2017-Nov-08 11:31N 29°37' W 095°00'0 0.0
2017-Nov-08 11:01N 29°37' W 095°00'0 0.0
2017-Nov-08 10:31N 29°37' W 095°00'0 0.0
2017-Nov-08 10:01N 29°37' W 095°00'0 0.0
2017-Nov-08 09:31N 29°37' W 095°00'0 0.0
2017-Nov-08 09:01N 29°37' W 095°00'0 0.0
2017-Nov-08 08:30N 29°37' W 095°00'0 0.0
2017-Nov-08 08:01N 29°37' W 095°00'0 0.0
2017-Nov-08 07:31N 29°37' W 095°00'0 0.0
2017-Nov-08 07:00N 29°37' W 095°00'0 0.0
2017-Nov-08 06:31N 29°37' W 095°00'0 0.0
2017-Nov-08 06:01N 29°37' W 095°00'0 0.0
2017-Nov-08 05:31N 29°37' W 095°00'0 0.0
2017-Nov-08 05:01N 29°37' W 095°00'0 0.0
2017-Nov-08 04:31N 29°37' W 095°00'0 0.0
2017-Nov-08 04:01N 29°37' W 095°00'0 0.0
2017-Nov-08 03:31N 29°37' W 095°00'0 0.0
2017-Nov-08 03:01N 29°37' W 095°00'2 4.8
2017-Nov-08 02:31N 29°37' W 094°58'3 6.2
2017-Nov-08 02:00N 29°40' W 094°59'2 3.8
2017-Nov-08 01:31N 29°41' W 094°57'2 3.1
2017-Nov-08 01:00N 29°42' W 094°55'1 1.4
2017-Nov-08 00:29N 29°42' W 094°56'0 0.9
2017-Nov-07 23:58N 29°42' W 094°56'1 2.4
2017-Nov-07 23:30N 29°42' W 094°55'2 3.2
2017-Nov-07 22:51N 29°41' W 094°57'1 4.4
2017-Nov-07 22:30N 29°41' W 094°59'3 5.8
2017-Nov-07 22:01N 29°38' W 094°58'2 4.2
2017-Nov-07 21:30N 29°37' W 094°60'0 0.9
2017-Nov-07 21:01N 29°37' W 095°00'0 0.0
2017-Nov-07 20:30N 29°37' W 095°00'0 0.0
2017-Nov-07 20:01N 29°37' W 095°00'0 0.0
2017-Nov-07 19:31N 29°37' W 095°00'0 0.0
2017-Nov-07 19:01N 29°37' W 095°00'  
Track history (hours):
 
Tides and Currents Weather Stations Pressure Air Temp Water Temp Dewpoint Dewpoint Depression Visibility Wind Speed Wind Dir Waves Ship Positions

Caleb J. Eymard

Owner: Eymard Brothers Towing Company, Inc., Marrero, LA. More information available from US FCC via Universal Licensing System and Coast Guard Vessel Documentation Center.

Last reported at 2017-Nov-17 18:51 UTC. Time now 2017-Nov-18 06:52 UTC.
Position N 29°42' W 094°55'.

Length 20 m; draft 3 m.

Type: Towing. MMSI: 367082880.

Date/timePositionNaut miles runAvg speedWind from/ knotsBaromVisibWave heightAir tempDewpointWater temp
2017-Nov-17 18:51N 29°42' W 094°55'0 0.1
2017-Nov-17 15:36N 29°42' W 094°55'0 0.0
2017-Nov-17 01:02N 29°42' W 094°55'0 1.3
2017-Nov-17 00:49N 29°42' W 094°55'1 1.7
2017-Nov-17 00:29N 29°42' W 094°56'1 1.6
2017-Nov-17 00:00N 29°43' W 094°56'0 0.0
2017-Nov-16 23:26N 29°43' W 094°56'0 0.0
2017-Nov-16 23:00N 29°43' W 094°56'0 0.1
2017-Nov-16 22:27N 29°43' W 094°56'0 0.0
2017-Nov-16 21:58N 29°43' W 094°56'0 0.0
2017-Nov-16 21:30N 29°43' W 094°56'0 0.0
2017-Nov-16 20:53N 29°43' W 094°56'1 0.6
2017-Nov-16 19:50N 29°43' W 094°57'1 1.9
2017-Nov-16 19:29N 29°43' W 094°56'1 1.5
2017-Nov-16 18:52N 29°42' W 094°55'1 2.5
2017-Nov-16 18:29N 29°41' W 094°55'2 3.3
2017-Nov-16 17:59N 29°41' W 094°57'1 2.8
2017-Nov-16 17:30N 29°40' W 094°59'3 5.9
2017-Nov-16 17:00N 29°38' W 094°58'2 4.8
2017-Nov-16 16:30N 29°37' W 095°00'0 0.5
2017-Nov-16 16:00N 29°37' W 095°00'0 0.0
2017-Nov-16 15:30N 29°37' W 095°00'0 0.0
2017-Nov-16 15:00N 29°37' W 095°00'0 0.0
2017-Nov-16 14:30N 29°37' W 095°00'0 0.0
2017-Nov-16 14:00N 29°37' W 095°00'0 0.0
2017-Nov-16 13:30N 29°37' W 095°00'0 0.1
2017-Nov-16 13:00N 29°37' W 095°01'0 0.0
2017-Nov-16 12:30N 29°37' W 095°00'0 0.0
2017-Nov-16 12:00N 29°37' W 095°01'0 0.0
2017-Nov-16 11:30N 29°37' W 095°01'0 0.0
2017-Nov-16 11:00N 29°37' W 095°01'0 0.0
2017-Nov-16 10:30N 29°37' W 095°00'0 0.0
2017-Nov-16 10:00N 29°37' W 095°00'0 0.0
2017-Nov-16 09:30N 29°37' W 095°00'0 0.0
2017-Nov-16 09:00N 29°37' W 095°00'0 0.0
2017-Nov-16 08:30N 29°37' W 095°00'0 0.0
2017-Nov-16 08:00N 29°37' W 095°01'0 0.0
2017-Nov-16 07:30N 29°37' W 095°00'0 0.0
2017-Nov-16 07:00N 29°37' W 095°01'0 0.0
2017-Nov-16 06:30N 29°37' W 095°00'0 0.0
2017-Nov-16 06:00N 29°37' W 095°01'0 0.0
2017-Nov-16 05:30N 29°37' W 095°00'0 0.0
2017-Nov-16 05:00N 29°37' W 095°01'2 3.6
2017-Nov-16 04:30N 29°37' W 094°58'2 4.8
2017-Nov-16 04:00N 29°39' W 094°58'2 4.3
2017-Nov-16 03:30N 29°41' W 094°58'2 4.0
2017-Nov-16 02:58N 29°41' W 094°56'1 1.2
2017-Nov-16 02:09N 29°42' W 094°55'0 0.0
2017-Nov-16 01:50N 29°42' W 094°55'1 1.8
2017-Nov-16 01:30N 29°41' W 094°55'2 2.8
2017-Nov-16 00:54N 29°41' W 094°57'1 3.8
2017-Nov-16 00:30N 29°41' W 094°59'3 5.1
2017-Nov-15 23:59N 29°43' W 095°01'5 5.0
2017-Nov-15 23:04N 29°46' W 095°05'0 6.1
2017-Nov-15 23:00N 29°45' W 095°06'3 5.4
2017-Nov-15 22:29N 29°44' W 095°09'3 5.5
2017-Nov-15 21:58N 29°45' W 095°12'3 5.3
2017-Nov-15 21:24N 29°43' W 095°15'2 4.4
2017-Nov-15 21:00N 29°44' W 095°17'0 0.0
2017-Nov-15 11:19N 29°44' W 095°17'0 0.0
2017-Nov-15 11:00N 29°44' W 095°17'0 0.0
2017-Nov-15 06:14N 29°44' W 095°17'0 0.2
2017-Nov-15 06:00N 29°44' W 095°17'2 4.4
2017-Nov-15 05:29N 29°43' W 095°14'3 5.8
2017-Nov-15 04:59N 29°45' W 095°11'3 6.0
2017-Nov-15 04:30N 29°44' W 095°08'3 5.9
2017-Nov-15 03:59N 29°46' W 095°05'3 5.9
2017-Nov-15 03:30N 29°44' W 095°03'3 5.3
2017-Nov-15 03:00N 29°42' W 095°01'3 5.1
2017-Nov-15 02:30N 29°41' W 094°58'2 4.0
2017-Nov-15 02:00N 29°41' W 094°55'1 1.5
2017-Nov-15 01:21N 29°42' W 094°55'0 0.5
2017-Nov-15 00:55N 29°42' W 094°55'2 3.8
2017-Nov-15 00:30N 29°40' W 094°56'2 4.3
2017-Nov-15 00:00N 29°41' W 094°58'2 4.6
2017-Nov-14 23:30N 29°39' W 094°58'2 4.3
2017-Nov-14 23:00N 29°37' W 094°58'1 2.7
2017-Nov-14 22:30N 29°37' W 095°00'0 0.1
2017-Nov-14 22:00N 29°37' W 095°00'0 0.0
2017-Nov-14 21:30N 29°37' W 095°00'0 0.0
2017-Nov-14 21:00N 29°37' W 095°00'0 0.0
2017-Nov-14 20:30N 29°37' W 095°00'0 0.0
2017-Nov-14 20:00N 29°37' W 095°00'0 0.0
2017-Nov-14 19:30N 29°37' W 095°00'0 0.0
2017-Nov-14 19:00N 29°37' W 095°00'0 0.0
2017-Nov-14 18:30N 29°37' W 095°00'0 0.0
2017-Nov-14 18:00N 29°37' W 095°00'0 0.0
2017-Nov-14 17:30N 29°37' W 095°00'0 0.0
2017-Nov-14 17:00N 29°37' W 095°00'0 0.0
2017-Nov-14 16:30N 29°37' W 095°00'0 0.1
2017-Nov-14 16:00N 29°37' W 095°00'0 0.0
2017-Nov-14 15:30N 29°37' W 095°00'0 0.0
2017-Nov-14 15:00N 29°37' W 095°00'0 0.0
2017-Nov-14 14:30N 29°37' W 095°00'0 0.0
2017-Nov-14 14:00N 29°37' W 095°00'0 0.0
2017-Nov-14 13:30N 29°37' W 095°00'0 0.0
2017-Nov-14 13:00N 29°37' W 095°00'0 0.0
2017-Nov-14 12:30N 29°37' W 095°00'0 0.0
2017-Nov-14 12:00N 29°37' W 095°00'0 0.0
2017-Nov-14 11:30N 29°37' W 095°00'0 0.0
2017-Nov-14 11:00N 29°37' W 095°00'0 0.0
2017-Nov-14 10:30N 29°37' W 095°00'0 0.0
2017-Nov-14 10:00N 29°37' W 095°00'0 0.0
2017-Nov-14 09:30N 29°37' W 095°00'0 0.0
2017-Nov-14 09:00N 29°37' W 095°00'0 0.0
2017-Nov-14 08:30N 29°37' W 095°00'0 0.0
2017-Nov-14 08:00N 29°37' W 095°00'0 0.0
2017-Nov-14 07:30N 29°37' W 095°00'0 0.0
2017-Nov-14 07:00N 29°37' W 095°00'0 0.6
2017-Nov-14 06:30N 29°37' W 094°60'2 4.1
2017-Nov-14 05:59N 29°38' W 094°58'3 6.1
2017-Nov-14 05:30N 29°41' W 094°59'2 4.2
2017-Nov-14 04:59N 29°41' W 094°56'2 0.6
2017-Nov-14 02:15N 29°42' W 094°55'0 0.3
2017-Nov-14 01:58N 29°42' W 094°55'1 3.1
2017-Nov-14 01:30N 29°40' W 094°56'2 3.9
2017-Nov-14 01:00N 29°41' W 094°58'2 4.3
2017-Nov-14 00:30N 29°42' W 095°00'3 5.3
2017-Nov-13 23:58N 29°44' W 095°03'3 4.8
2017-Nov-13 23:21N 29°45' W 095°06'2 5.9
2017-Nov-13 22:57N 29°44' W 095°08'3 5.8
2017-Nov-13 22:24N 29°45' W 095°12'2 5.4
2017-Nov-13 21:59N 29°43' W 095°14'11 0.5
2017-Nov-13 02:00N 29°43' W 095°01'3 5.6
2017-Nov-13 01:30N 29°41' W 094°59'2 4.7
2017-Nov-13 01:01N 29°41' W 094°56'2 3.3
2017-Nov-13 00:29N 29°42' W 094°55'1 1.4
2017-Nov-13 00:00N 29°41' W 094°55'1 2.7
2017-Nov-12 23:30N 29°41' W 094°57'2 3.6
2017-Nov-12 23:01N 29°41' W 094°59'3 5.3
2017-Nov-12 22:31N 29°43' W 095°01'3 5.1
2017-Nov-12 22:00N 29°44' W 095°03'3 4.0
2017-Nov-12 21:19N 29°44' W 095°07'2 5.9
2017-Nov-12 21:00N 29°44' W 095°09'3 5.5
2017-Nov-12 20:30N 29°44' W 095°12'3 5.3
2017-Nov-12 20:00N 29°43' W 095°15'2 4.2
2017-Nov-12 19:30N 29°44' W 095°17'0 0.1
2017-Nov-12 19:01N 29°44' W 095°17'0 0.0
2017-Nov-12 16:55N 29°44' W 095°17'0 0.0
2017-Nov-12 09:37N 29°44' W 095°17'0 0.0
2017-Nov-12 02:42N 29°44' W 095°17'0 0.4
2017-Nov-12 02:30N 29°44' W 095°17'0 0.2
2017-Nov-12 01:48N 29°44' W 095°17'0 0.0
2017-Nov-12 01:15N 29°44' W 095°17'0 0.0
2017-Nov-12 00:54N 29°44' W 095°17'0 0.0
2017-Nov-12 00:30N 29°44' W 095°17'2 4.4
2017-Nov-12 00:00N 29°43' W 095°14'3 5.9
2017-Nov-11 23:28N 29°45' W 095°11'4 6.0
2017-Nov-11 22:47N 29°45' W 095°06'2 5.9
2017-Nov-11 22:27N 29°46' W 095°05'3 6.0
2017-Nov-11 21:55N 29°44' W 095°02'2 5.6
2017-Nov-11 21:30N 29°42' W 095°00'3 5.1
2017-Nov-11 20:59N 29°41' W 094°57'2 3.3
2017-Nov-11 20:28N 29°41' W 094°55'1 0.3
2017-Nov-11 18:21N 29°42' W 094°55'0 0.2
2017-Nov-11 17:56N 29°42' W 094°55'1 1.9
2017-Nov-11 17:28N 29°41' W 094°55'2 4.1
2017-Nov-11 17:00N 29°41' W 094°58'2 3.7
2017-Nov-11 16:31N 29°39' W 094°58'3 5.2
2017-Nov-11 16:01N 29°37' W 094°58'2 3.5
2017-Nov-11 15:31N 29°37' W 095°00'0 0.0
2017-Nov-11 15:01N 29°37' W 095°00'0 0.0
2017-Nov-11 14:31N 29°37' W 095°00'0 0.0
2017-Nov-11 14:01N 29°37' W 095°00'0 0.0
2017-Nov-11 13:31N 29°37' W 095°00'0 0.0
2017-Nov-11 13:00N 29°37' W 095°00'0 0.0
2017-Nov-11 12:30N 29°37' W 095°00'0 0.0
2017-Nov-11 12:00N 29°37' W 095°00'0 0.0
2017-Nov-11 11:30N 29°37' W 095°00'0 0.0
2017-Nov-11 11:00N 29°37' W 095°00'0 0.0
2017-Nov-11 10:30N 29°37' W 095°00'0 0.0
2017-Nov-11 10:00N 29°37' W 095°00'0 0.0
2017-Nov-11 09:30N 29°37' W 095°00'0 0.0
2017-Nov-11 09:00N 29°37' W 095°00'0 0.0
2017-Nov-11 08:30N 29°37' W 095°00'0 0.0
2017-Nov-11 08:00N 29°37' W 095°00'0 0.0
2017-Nov-11 07:30N 29°37' W 095°00'0 0.0
2017-Nov-11 07:00N 29°37' W 095°00'0 0.0
2017-Nov-11 06:30N 29°37' W 095°00'0 0.0
2017-Nov-11 06:00N 29°37' W 095°00'0 0.0
2017-Nov-11 05:30N 29°37' W 095°00'0 0.0
2017-Nov-11 05:00N 29°37' W 095°00'0 0.0
2017-Nov-11 04:30N 29°37' W 095°00'0 0.0
2017-Nov-11 04:00N 29°37' W 095°00'0 0.0
2017-Nov-11 03:30N 29°37' W 095°00'0 0.0
2017-Nov-11 03:00N 29°37' W 095°00'0 0.0
2017-Nov-11 02:30N 29°37' W 095°00'0 0.0
2017-Nov-11 02:00N 29°37' W 095°00'0 0.2
2017-Nov-11 01:30N 29°37' W 095°00'2 4.9
2017-Nov-11 01:00N 29°37' W 094°58'4 7.5
2017-Nov-11 00:30N 29°41' W 094°59'3 5.1
2017-Nov-11 00:00N 29°40' W 094°56'2 0.7
2017-Nov-10 21:24N 29°42' W 094°55'2 4.4
2017-Nov-10 21:00N 29°40' W 094°56'3 5.7
2017-Nov-10 20:30N 29°41' W 094°59'4 7.1
2017-Nov-10 19:58N 29°44' W 095°02'4 2.1
2017-Nov-10 18:07N 29°45' W 095°07'0 0.0
2017-Nov-10 17:58N 29°45' W 095°07'0 0.0
2017-Nov-10 15:10N 29°45' W 095°07'0 0.0
2017-Nov-10 14:43N 29°45' W 095°07'0 0.0
2017-Nov-10 14:21N 29°45' W 095°07'0 0.0
2017-Nov-10 01:18N 29°45' W 095°07'0 1.6
2017-Nov-10 01:00N 29°44' W 095°07'3 6.4
2017-Nov-10 00:28N 29°45' W 095°11'2 5.0
2017-Nov-10 00:00N 29°44' W 095°13'1 2.2
2017-Nov-09 23:31N 29°44' W 095°12'1 1.4
2017-Nov-09 23:00N 29°45' W 095°11'0 0.0
2017-Nov-09 22:29N 29°45' W 095°11'0 0.0
2017-Nov-09 22:00N 29°45' W 095°11'0 0.0
2017-Nov-09 21:25N 29°45' W 095°11'0 0.0
2017-Nov-09 20:58N 29°45' W 095°11'0 0.0
2017-Nov-09 20:29N 29°45' W 095°11'0 0.0
2017-Nov-09 19:55N 29°45' W 095°11'0 0.0
2017-Nov-09 18:49N 29°45' W 095°11'0 0.0
2017-Nov-09 18:24N 29°45' W 095°11'0 0.0
2017-Nov-09 16:48N 29°45' W 095°11'0 0.0
2017-Nov-09 14:56N 29°45' W 095°11'0 0.0
2017-Nov-09 13:55N 29°45' W 095°11'0 0.0
2017-Nov-09 13:20N 29°45' W 095°11'0 0.0
2017-Nov-09 13:00N 29°45' W 095°11'0 0.0
2017-Nov-09 12:30N 29°45' W 095°11'0 0.0
2017-Nov-09 12:00N 29°45' W 095°11'0 0.0
2017-Nov-09 11:30N 29°45' W 095°11'0 0.0
2017-Nov-09 11:00N 29°45' W 095°11'0 0.0
2017-Nov-09 10:30N 29°45' W 095°11'0 0.0
2017-Nov-09 09:59N 29°45' W 095°11'0 0.0
2017-Nov-09 09:30N 29°45' W 095°11'0 0.0
2017-Nov-09 09:00N 29°45' W 095°11'0 0.0
2017-Nov-09 08:30N 29°45' W 095°11'0 0.0
2017-Nov-09 08:00N 29°45' W 095°11'0 0.0
2017-Nov-09 07:29N 29°45' W 095°11'0 0.0
2017-Nov-09 07:00N 29°45' W 095°11'0 0.0
2017-Nov-09 06:30N 29°45' W 095°11'0 0.0
2017-Nov-09 06:00N 29°45' W 095°11'0 0.0
2017-Nov-09 05:30N 29°45' W 095°11'0 0.0
2017-Nov-09 05:00N 29°45' W 095°11'0 0.0
2017-Nov-09 04:30N 29°45' W 095°11'0 0.0
2017-Nov-09 04:00N 29°45' W 095°11'0 0.0
2017-Nov-09 03:27N 29°45' W 095°11'0 0.0
2017-Nov-09 03:00N 29°45' W 095°11'0 0.0
2017-Nov-09 02:30N 29°45' W 095°11'0 0.0
2017-Nov-09 01:58N 29°45' W 095°11'0 0.0
2017-Nov-09 01:27N 29°45' W 095°11'0 0.0
2017-Nov-09 01:00N 29°45' W 095°11'0 0.0
2017-Nov-09 00:30N 29°45' W 095°11'0 0.0
2017-Nov-09 00:00N 29°45' W 095°11'0 0.0
2017-Nov-08 23:30N 29°45' W 095°11'0 0.0
2017-Nov-08 23:00N 29°45' W 095°11'0 0.0
2017-Nov-08 22:30N 29°45' W 095°11'0 0.1
2017-Nov-08 21:51N 29°45' W 095°11'0 0.0
2017-Nov-08 21:16N 29°45' W 095°11'1 1.9
2017-Nov-08 20:54N 29°45' W 095°11'2 5.8
2017-Nov-08 20:30N 29°44' W 095°08'3 5.8
2017-Nov-08 20:00N 29°46' W 095°05'3 5.3
2017-Nov-08 19:30N 29°44' W 095°03'2 4.9
2017-Nov-08 19:00N 29°42' W 095°01'2 5.0
2017-Nov-08 18:30N 29°41' W 094°59'3 5.8
2017-Nov-08 18:00N 29°38' W 094°58'2 4.4
2017-Nov-08 17:30N 29°37' W 094°60'0 0.8
2017-Nov-08 17:00N 29°37' W 095°00'0 0.0
2017-Nov-08 16:30N 29°37' W 095°00'0 0.0
2017-Nov-08 16:00N 29°37' W 095°00'0 0.0
2017-Nov-08 15:30N 29°37' W 095°00'0 0.0
2017-Nov-08 15:00N 29°37' W 095°00'0 0.0
2017-Nov-08 14:30N 29°37' W 095°00'0 0.0
2017-Nov-08 14:00N 29°37' W 095°00'0 0.0
2017-Nov-08 13:30N 29°37' W 095°00'0 0.1
2017-Nov-08 13:00N 29°37' W 095°00'0 0.0
2017-Nov-08 12:31N 29°37' W 095°00'0 0.0
2017-Nov-08 12:01N 29°37' W 095°00'0 0.0
2017-Nov-08 11:31N 29°37' W 095°00'0 0.0
2017-Nov-08 11:01N 29°37' W 095°00'0 0.0
2017-Nov-08 10:31N 29°37' W 095°00'0 0.0
2017-Nov-08 10:01N 29°37' W 095°00'0 0.0
2017-Nov-08 09:31N 29°37' W 095°00'0 0.0
2017-Nov-08 09:01N 29°37' W 095°00'0 0.0
2017-Nov-08 08:30N 29°37' W 095°00'0 0.0
2017-Nov-08 08:01N 29°37' W 095°00'0 0.0
2017-Nov-08 07:31N 29°37' W 095°00'0 0.0
2017-Nov-08 07:00N 29°37' W 095°00'0 0.0
2017-Nov-08 06:31N 29°37' W 095°00'0 0.0
2017-Nov-08 06:01N 29°37' W 095°00'0 0.0
2017-Nov-08 05:31N 29°37' W 095°00'0 0.0
2017-Nov-08 05:01N 29°37' W 095°00'0 0.0
2017-Nov-08 04:31N 29°37' W 095°00'0 0.0
2017-Nov-08 04:01N 29°37' W 095°00'0 0.0
2017-Nov-08 03:31N 29°37' W 095°00'0 0.0
2017-Nov-08 03:01N 29°37' W 095°00'2 4.8
2017-Nov-08 02:31N 29°37' W 094°58'3 6.2
2017-Nov-08 02:00N 29°40' W 094°59'2 3.8
2017-Nov-08 01:31N 29°41' W 094°57'2 3.1
2017-Nov-08 01:00N 29°42' W 094°55'1 1.4
2017-Nov-08 00:29N 29°42' W 094°56'0 0.9
2017-Nov-07 23:58N 29°42' W 094°56'1 2.4
2017-Nov-07 23:30N 29°42' W 094°55'2 3.2
2017-Nov-07 22:51N 29°41' W 094°57'1 4.4
2017-Nov-07 22:30N 29°41' W 094°59'3 5.8
2017-Nov-07 22:01N 29°38' W 094°58'2 4.2
2017-Nov-07 21:30N 29°37' W 094°60'0 0.9
2017-Nov-07 21:01N 29°37' W 095°00'0 0.0
2017-Nov-07 20:30N 29°37' W 095°00'0 0.0
2017-Nov-07 20:01N 29°37' W 095°00'0 0.0
2017-Nov-07 19:31N 29°37' W 095°00'0 0.0
2017-Nov-07 19:01N 29°37' W 095°00'  

Dump ship's entire track history